sensor_id;sensor_type;location;lat;lon;timestamp;temperature;humidity
25668;DHT22;18003;-33.830;151.202;2022-11-15T00:02:14;21.00;99.90
25668;DHT22;18003;-33.830;151.202;2022-11-15T00:04:43;21.00;99.90
25668;DHT22;18003;-33.830;151.202;2022-11-15T00:07:13;21.00;99.90
25668;DHT22;18003;-33.830;151.202;2022-11-15T00:09:43;21.00;99.90
25668;DHT22;18003;-33.830;151.202;2022-11-15T00:12:13;21.00;99.90
25668;DHT22;18003;-33.830;151.202;2022-11-15T00:14:43;21.00;99.90
25668;DHT22;18003;-33.830;151.202;2022-11-15T00:17:13;21.00;99.90
25668;DHT22;18003;-33.830;151.202;2022-11-15T00:19:48;20.90;99.90
25668;DHT22;18003;-33.830;151.202;2022-11-15T00:22:14;20.90;99.90
25668;DHT22;18003;-33.830;151.202;2022-11-15T00:24:47;21.00;99.90
25668;DHT22;18003;-33.830;151.202;2022-11-15T00:27:16;20.90;99.90
25668;DHT22;18003;-33.830;151.202;2022-11-15T00:29:46;21.00;99.90
25668;DHT22;18003;-33.830;151.202;2022-11-15T00:32:16;20.90;99.90
25668;DHT22;18003;-33.830;151.202;2022-11-15T00:34:46;20.90;99.90
25668;DHT22;18003;-33.830;151.202;2022-11-15T00:37:16;20.90;99.90
25668;DHT22;18003;-33.830;151.202;2022-11-15T00:39:45;20.90;99.90
25668;DHT22;18003;-33.830;151.202;2022-11-15T00:42:15;20.90;99.90
25668;DHT22;18003;-33.830;151.202;2022-11-15T00:44:45;20.90;99.90
25668;DHT22;18003;-33.830;151.202;2022-11-15T00:47:15;20.90;99.90
25668;DHT22;18003;-33.830;151.202;2022-11-15T00:49:48;20.90;99.90
25668;DHT22;18003;-33.830;151.202;2022-11-15T00:52:18;20.90;99.90
25668;DHT22;18003;-33.830;151.202;2022-11-15T00:54:48;20.90;99.90
25668;DHT22;18003;-33.830;151.202;2022-11-15T00:57:18;20.90;99.90
25668;DHT22;18003;-33.830;151.202;2022-11-15T00:59:48;20.90;99.90
25668;DHT22;18003;-33.830;151.202;2022-11-15T01:02:18;20.90;99.90
25668;DHT22;18003;-33.830;151.202;2022-11-15T01:04:48;20.90;99.90
25668;DHT22;18003;-33.830;151.202;2022-11-15T01:07:18;20.90;99.90
25668;DHT22;18003;-33.830;151.202;2022-11-15T01:09:47;20.90;99.90
25668;DHT22;18003;-33.830;151.202;2022-11-15T01:12:17;21.00;99.90
25668;DHT22;18003;-33.830;151.202;2022-11-15T01:14:47;21.00;99.90
25668;DHT22;18003;-33.830;151.202;2022-11-15T01:17:17;21.00;99.90
25668;DHT22;18003;-33.830;151.202;2022-11-15T01:19:47;20.90;99.90
25668;DHT22;18003;-33.830;151.202;2022-11-15T01:22:17;20.90;99.90
25668;DHT22;18003;-33.830;151.202;2022-11-15T01:24:48;20.90;99.90
25668;DHT22;18003;-33.830;151.202;2022-11-15T01:27:18;21.00;99.90
25668;DHT22;18003;-33.830;151.202;2022-11-15T01:29:48;20.90;99.90
25668;DHT22;18003;-33.830;151.202;2022-11-15T01:32:18;20.90;99.90
25668;DHT22;18003;-33.830;151.202;2022-11-15T01:34:48;21.00;99.90
25668;DHT22;18003;-33.830;151.202;2022-11-15T01:37:17;21.00;99.90
25668;DHT22;18003;-33.830;151.202;2022-11-15T01:39:47;20.90;99.90
25668;DHT22;18003;-33.830;151.202;2022-11-15T01:42:17;20.90;99.90
25668;DHT22;18003;-33.830;151.202;2022-11-15T01:44:51;21.00;99.90
25668;DHT22;18003;-33.830;151.202;2022-11-15T01:47:24;21.00;99.90
25668;DHT22;18003;-33.830;151.202;2022-11-15T01:50:04;21.00;99.90
25668;DHT22;18003;-33.830;151.202;2022-11-15T01:52:32;21.00;99.90
25668;DHT22;18003;-33.830;151.202;2022-11-15T01:57:42;21.00;99.90
25668;DHT22;18003;-33.830;151.202;2022-11-15T02:00:13;20.90;99.90
25668;DHT22;18003;-33.830;151.202;2022-11-15T02:02:44;20.90;99.90
25668;DHT22;18003;-33.830;151.202;2022-11-15T02:05:13;21.00;99.90
25668;DHT22;18003;-33.830;151.202;2022-11-15T02:07:43;21.00;99.90
25668;DHT22;18003;-33.830;151.202;2022-11-15T02:10:20;21.00;99.90
25668;DHT22;18003;-33.830;151.202;2022-11-15T02:12:46;21.00;99.90
25668;DHT22;18003;-33.830;151.202;2022-11-15T02:15:17;21.00;99.90
25668;DHT22;18003;-33.830;151.202;2022-11-15T02:20:33;21.00;99.90
25668;DHT22;18003;-33.830;151.202;2022-11-15T02:25:56;21.00;99.90
25668;DHT22;18003;-33.830;151.202;2022-11-15T02:31:18;21.00;99.90
25668;DHT22;18003;-33.830;151.202;2022-11-15T02:33:38;21.00;99.90
25668;DHT22;18003;-33.830;151.202;2022-11-15T02:39:24;21.00;99.90
25668;DHT22;18003;-33.830;151.202;2022-11-15T02:41:46;21.00;99.90
25668;DHT22;18003;-33.830;151.202;2022-11-15T02:44:31;21.00;99.90
25668;DHT22;18003;-33.830;151.202;2022-11-15T02:47:03;21.00;99.90
25668;DHT22;18003;-33.830;151.202;2022-11-15T02:49:56;21.00;99.90
25668;DHT22;18003;-33.830;151.202;2022-11-15T02:52:26;21.00;99.90
25668;DHT22;18003;-33.830;151.202;2022-11-15T02:54:57;21.10;99.90
25668;DHT22;18003;-33.830;151.202;2022-11-15T03:00:15;21.00;99.90
25668;DHT22;18003;-33.830;151.202;2022-11-15T03:05:51;21.00;99.90
25668;DHT22;18003;-33.830;151.202;2022-11-15T03:08:39;21.10;99.90
25668;DHT22;18003;-33.830;151.202;2022-11-15T03:11:01;21.00;99.90
25668;DHT22;18003;-33.830;151.202;2022-11-15T03:16:34;21.00;99.90
25668;DHT22;18003;-33.830;151.202;2022-11-15T03:19:04;21.00;99.90
25668;DHT22;18003;-33.830;151.202;2022-11-15T03:21:34;21.10;99.90
25668;DHT22;18003;-33.830;151.202;2022-11-15T03:24:07;21.10;99.90
25668;DHT22;18003;-33.830;151.202;2022-11-15T03:26:38;21.00;99.90
25668;DHT22;18003;-33.830;151.202;2022-11-15T03:29:19;21.00;99.90
25668;DHT22;18003;-33.830;151.202;2022-11-15T03:31:45;21.00;99.90
25668;DHT22;18003;-33.830;151.202;2022-11-15T03:37:06;21.00;99.90
25668;DHT22;18003;-33.830;151.202;2022-11-15T03:39:36;21.00;99.90
25668;DHT22;18003;-33.830;151.202;2022-11-15T03:45:15;21.00;99.90
25668;DHT22;18003;-33.830;151.202;2022-11-15T03:47:49;20.90;99.90
25668;DHT22;18003;-33.830;151.202;2022-11-15T03:50:21;20.90;99.90
25668;DHT22;18003;-33.830;151.202;2022-11-15T03:52:50;20.90;99.90
25668;DHT22;18003;-33.830;151.202;2022-11-15T03:55:21;20.90;99.90
25668;DHT22;18003;-33.830;151.202;2022-11-15T03:57:53;20.90;99.90
25668;DHT22;18003;-33.830;151.202;2022-11-15T04:00:24;20.90;99.90
25668;DHT22;18003;-33.830;151.202;2022-11-15T04:02:54;21.00;99.90
25668;DHT22;18003;-33.830;151.202;2022-11-15T04:05:23;21.00;99.90
25668;DHT22;18003;-33.830;151.202;2022-11-15T04:07:54;21.00;99.90
25668;DHT22;18003;-33.830;151.202;2022-11-15T04:10:24;21.00;99.90
25668;DHT22;18003;-33.830;151.202;2022-11-15T04:12:54;21.00;99.90
25668;DHT22;18003;-33.830;151.202;2022-11-15T04:15:24;21.00;99.90
25668;DHT22;18003;-33.830;151.202;2022-11-15T04:17:58;20.90;99.90
25668;DHT22;18003;-33.830;151.202;2022-11-15T04:20:29;20.90;99.90
25668;DHT22;18003;-33.830;151.202;2022-11-15T04:23:17;20.90;99.90
25668;DHT22;18003;-33.830;151.202;2022-11-15T04:26:08;20.90;99.90
25668;DHT22;18003;-33.830;151.202;2022-11-15T04:28:38;20.90;99.90
25668;DHT22;18003;-33.830;151.202;2022-11-15T04:31:09;20.90;99.90
25668;DHT22;18003;-33.830;151.202;2022-11-15T04:33:39;20.90;99.90
25668;DHT22;18003;-33.830;151.202;2022-11-15T04:36:09;20.90;99.90
25668;DHT22;18003;-33.830;151.202;2022-11-15T04:38:56;20.90;99.90
25668;DHT22;18003;-33.830;151.202;2022-11-15T04:41:26;20.90;99.90
25668;DHT22;18003;-33.830;151.202;2022-11-15T04:43:57;20.90;99.90
25668;DHT22;18003;-33.830;151.202;2022-11-15T04:46:27;20.90;99.90
25668;DHT22;18003;-33.830;151.202;2022-11-15T04:48:57;20.90;99.90
25668;DHT22;18003;-33.830;151.202;2022-11-15T04:51:27;20.90;99.90
25668;DHT22;18003;-33.830;151.202;2022-11-15T04:53:58;20.90;99.90
25668;DHT22;18003;-33.830;151.202;2022-11-15T04:56:28;20.90;99.90
25668;DHT22;18003;-33.830;151.202;2022-11-15T04:58:58;20.80;99.90
25668;DHT22;18003;-33.830;151.202;2022-11-15T05:01:29;20.90;99.90
25668;DHT22;18003;-33.830;151.202;2022-11-15T05:03:59;20.80;99.90
25668;DHT22;18003;-33.830;151.202;2022-11-15T05:06:50;20.90;99.90
25668;DHT22;18003;-33.830;151.202;2022-11-15T05:09:20;20.90;99.90
25668;DHT22;18003;-33.830;151.202;2022-11-15T05:11:51;20.90;99.90
25668;DHT22;18003;-33.830;151.202;2022-11-15T05:14:20;20.90;99.90
25668;DHT22;18003;-33.830;151.202;2022-11-15T05:16:50;20.90;99.90
25668;DHT22;18003;-33.830;151.202;2022-11-15T05:19:21;20.90;99.90
25668;DHT22;18003;-33.830;151.202;2022-11-15T05:21:51;20.90;99.90
25668;DHT22;18003;-33.830;151.202;2022-11-15T05:24:21;20.90;99.90
25668;DHT22;18003;-33.830;151.202;2022-11-15T05:26:51;20.90;99.90
25668;DHT22;18003;-33.830;151.202;2022-11-15T05:29:21;20.90;99.90
25668;DHT22;18003;-33.830;151.202;2022-11-15T05:31:51;20.90;99.90
25668;DHT22;18003;-33.830;151.202;2022-11-15T05:34:21;20.90;99.90
25668;DHT22;18003;-33.830;151.202;2022-11-15T05:36:52;20.90;99.90
25668;DHT22;18003;-33.830;151.202;2022-11-15T05:39:23;20.90;99.90
25668;DHT22;18003;-33.830;151.202;2022-11-15T05:42:00;20.90;99.90
25668;DHT22;18003;-33.830;151.202;2022-11-15T05:44:28;20.90;99.90
25668;DHT22;18003;-33.830;151.202;2022-11-15T05:46:58;20.80;99.90
25668;DHT22;18003;-33.830;151.202;2022-11-15T05:49:30;20.90;99.90
25668;DHT22;18003;-33.830;151.202;2022-11-15T05:52:00;20.90;99.90
25668;DHT22;18003;-33.830;151.202;2022-11-15T05:54:32;20.90;99.90
25668;DHT22;18003;-33.830;151.202;2022-11-15T05:57:03;20.90;99.90
25668;DHT22;18003;-33.830;151.202;2022-11-15T05:59:34;20.90;99.90
25668;DHT22;18003;-33.830;151.202;2022-11-15T06:02:03;20.90;99.90
25668;DHT22;18003;-33.830;151.202;2022-11-15T06:04:34;20.90;99.90
25668;DHT22;18003;-33.830;151.202;2022-11-15T06:07:04;20.80;99.90
25668;DHT22;18003;-33.830;151.202;2022-11-15T06:09:34;20.80;99.90
25668;DHT22;18003;-33.830;151.202;2022-11-15T06:12:05;20.80;99.90
25668;DHT22;18003;-33.830;151.202;2022-11-15T06:14:35;20.80;99.90
25668;DHT22;18003;-33.830;151.202;2022-11-15T06:17:06;20.80;99.90
25668;DHT22;18003;-33.830;151.202;2022-11-15T06:19:36;20.80;99.90
25668;DHT22;18003;-33.830;151.202;2022-11-15T06:22:06;20.80;99.90
25668;DHT22;18003;-33.830;151.202;2022-11-15T06:24:37;20.80;99.90
25668;DHT22;18003;-33.830;151.202;2022-11-15T06:27:07;20.80;99.90
25668;DHT22;18003;-33.830;151.202;2022-11-15T06:29:37;20.80;99.90
25668;DHT22;18003;-33.830;151.202;2022-11-15T06:32:07;20.90;99.90
25668;DHT22;18003;-33.830;151.202;2022-11-15T06:34:37;20.90;99.90
25668;DHT22;18003;-33.830;151.202;2022-11-15T06:37:07;21.00;99.90
25668;DHT22;18003;-33.830;151.202;2022-11-15T06:39:37;21.00;99.90
25668;DHT22;18003;-33.830;151.202;2022-11-15T06:42:08;21.10;99.90
25668;DHT22;18003;-33.830;151.202;2022-11-15T06:44:38;21.10;99.90
25668;DHT22;18003;-33.830;151.202;2022-11-15T06:47:07;21.10;99.90
25668;DHT22;18003;-33.830;151.202;2022-11-15T06:49:37;21.20;99.90
25668;DHT22;18003;-33.830;151.202;2022-11-15T06:52:07;21.20;99.90
25668;DHT22;18003;-33.830;151.202;2022-11-15T06:54:37;21.10;99.90
25668;DHT22;18003;-33.830;151.202;2022-11-15T06:57:07;21.00;99.90
25668;DHT22;18003;-33.830;151.202;2022-11-15T06:59:37;21.10;99.90
25668;DHT22;18003;-33.830;151.202;2022-11-15T07:02:10;21.10;99.90
25668;DHT22;18003;-33.830;151.202;2022-11-15T07:04:37;21.10;99.90
25668;DHT22;18003;-33.830;151.202;2022-11-15T07:07:08;21.10;99.90
25668;DHT22;18003;-33.830;151.202;2022-11-15T07:09:37;21.10;99.90
25668;DHT22;18003;-33.830;151.202;2022-11-15T07:12:07;21.10;99.90
25668;DHT22;18003;-33.830;151.202;2022-11-15T07:14:37;21.10;99.90
25668;DHT22;18003;-33.830;151.202;2022-11-15T07:17:07;21.20;99.90
25668;DHT22;18003;-33.830;151.202;2022-11-15T07:19:37;21.20;99.90
25668;DHT22;18003;-33.830;151.202;2022-11-15T07:22:07;21.10;99.90
25668;DHT22;18003;-33.830;151.202;2022-11-15T07:24:37;21.10;99.90
25668;DHT22;18003;-33.830;151.202;2022-11-15T07:27:07;21.10;99.90
25668;DHT22;18003;-33.830;151.202;2022-11-15T07:29:37;21.00;99.90
25668;DHT22;18003;-33.830;151.202;2022-11-15T07:32:07;21.10;99.90
25668;DHT22;18003;-33.830;151.202;2022-11-15T07:34:42;21.10;99.90
25668;DHT22;18003;-33.830;151.202;2022-11-15T07:37:13;21.20;99.90
25668;DHT22;18003;-33.830;151.202;2022-11-15T07:39:44;21.10;99.90
25668;DHT22;18003;-33.830;151.202;2022-11-15T07:42:14;21.10;99.90
25668;DHT22;18003;-33.830;151.202;2022-11-15T07:45:02;21.10;99.90
25668;DHT22;18003;-33.830;151.202;2022-11-15T07:47:32;21.10;99.90
25668;DHT22;18003;-33.830;151.202;2022-11-15T07:50:02;21.10;99.90
25668;DHT22;18003;-33.830;151.202;2022-11-15T07:52:32;21.10;99.90
25668;DHT22;18003;-33.830;151.202;2022-11-15T07:55:02;21.10;99.90
25668;DHT22;18003;-33.830;151.202;2022-11-15T07:57:32;21.10;99.90
25668;DHT22;18003;-33.830;151.202;2022-11-15T08:00:07;21.10;99.90
25668;DHT22;18003;-33.830;151.202;2022-11-15T08:02:33;21.10;99.90
25668;DHT22;18003;-33.830;151.202;2022-11-15T08:05:03;21.00;99.90
25668;DHT22;18003;-33.830;151.202;2022-11-15T08:07:33;21.00;99.90
25668;DHT22;18003;-33.830;151.202;2022-11-15T08:10:07;21.00;99.90
25668;DHT22;18003;-33.830;151.202;2022-11-15T08:12:37;21.00;99.90
25668;DHT22;18003;-33.830;151.202;2022-11-15T08:15:08;21.00;99.90
25668;DHT22;18003;-33.830;151.202;2022-11-15T08:17:38;20.90;99.90
25668;DHT22;18003;-33.830;151.202;2022-11-15T08:20:09;20.90;99.90
25668;DHT22;18003;-33.830;151.202;2022-11-15T08:22:39;20.90;99.90
25668;DHT22;18003;-33.830;151.202;2022-11-15T08:25:09;20.90;99.90
25668;DHT22;18003;-33.830;151.202;2022-11-15T08:27:39;20.90;99.90
25668;DHT22;18003;-33.830;151.202;2022-11-15T08:30:09;20.90;99.90
25668;DHT22;18003;-33.830;151.202;2022-11-15T08:32:40;20.80;99.90
25668;DHT22;18003;-33.830;151.202;2022-11-15T08:35:10;20.90;99.90
25668;DHT22;18003;-33.830;151.202;2022-11-15T08:37:40;20.80;99.90
25668;DHT22;18003;-33.830;151.202;2022-11-15T08:40:10;20.80;99.90
25668;DHT22;18003;-33.830;151.202;2022-11-15T08:42:40;20.80;99.90
25668;DHT22;18003;-33.830;151.202;2022-11-15T08:45:10;20.80;99.90
25668;DHT22;18003;-33.830;151.202;2022-11-15T08:47:40;20.80;99.90
25668;DHT22;18003;-33.830;151.202;2022-11-15T08:50:10;20.80;99.90
25668;DHT22;18003;-33.830;151.202;2022-11-15T08:52:40;20.80;99.90
25668;DHT22;18003;-33.830;151.202;2022-11-15T08:55:09;20.70;99.90
25668;DHT22;18003;-33.830;151.202;2022-11-15T08:57:40;20.80;99.90
25668;DHT22;18003;-33.830;151.202;2022-11-15T09:00:11;20.80;99.90
25668;DHT22;18003;-33.830;151.202;2022-11-15T09:02:41;20.80;99.90
25668;DHT22;18003;-33.830;151.202;2022-11-15T09:05:10;20.80;99.90
25668;DHT22;18003;-33.830;151.202;2022-11-15T09:07:40;20.80;99.90
25668;DHT22;18003;-33.830;151.202;2022-11-15T09:10:10;20.80;99.90
25668;DHT22;18003;-33.830;151.202;2022-11-15T09:12:41;20.80;99.90
25668;DHT22;18003;-33.830;151.202;2022-11-15T09:15:11;20.80;99.90
25668;DHT22;18003;-33.830;151.202;2022-11-15T09:17:41;20.80;99.90
25668;DHT22;18003;-33.830;151.202;2022-11-15T09:20:11;20.70;99.90
25668;DHT22;18003;-33.830;151.202;2022-11-15T09:22:41;20.70;99.90
25668;DHT22;18003;-33.830;151.202;2022-11-15T09:25:11;20.70;99.90
25668;DHT22;18003;-33.830;151.202;2022-11-15T09:27:40;20.70;99.90
25668;DHT22;18003;-33.830;151.202;2022-11-15T09:30:11;20.70;99.90
25668;DHT22;18003;-33.830;151.202;2022-11-15T09:32:41;20.70;99.90
25668;DHT22;18003;-33.830;151.202;2022-11-15T09:35:10;20.70;99.90
25668;DHT22;18003;-33.830;151.202;2022-11-15T09:37:40;20.70;99.90
25668;DHT22;18003;-33.830;151.202;2022-11-15T09:40:12;20.70;99.90
25668;DHT22;18003;-33.830;151.202;2022-11-15T09:50:59;20.70;99.90
25668;DHT22;18003;-33.830;151.202;2022-11-15T09:53:43;20.60;99.90
25668;DHT22;18003;-33.830;151.202;2022-11-15T09:56:23;20.60;99.90
25668;DHT22;18003;-33.830;151.202;2022-11-15T09:59:52;20.70;99.90
25668;DHT22;18003;-33.830;151.202;2022-11-15T10:01:53;20.70;99.90
25668;DHT22;18003;-33.830;151.202;2022-11-15T10:04:25;20.70;99.90
25668;DHT22;18003;-33.830;151.202;2022-11-15T10:12:23;20.70;99.90
25668;DHT22;18003;-33.830;151.202;2022-11-15T10:15:02;20.60;99.90
25668;DHT22;18003;-33.830;151.202;2022-11-15T10:20:20;20.60;99.90
25668;DHT22;18003;-33.830;151.202;2022-11-15T10:22:48;20.60;99.90
25668;DHT22;18003;-33.830;151.202;2022-11-15T10:25:25;20.60;99.90
25668;DHT22;18003;-33.830;151.202;2022-11-15T10:27:57;20.60;99.90
25668;DHT22;18003;-33.830;151.202;2022-11-15T10:30:36;20.60;99.90
25668;DHT22;18003;-33.830;151.202;2022-11-15T10:33:24;20.60;99.90
25668;DHT22;18003;-33.830;151.202;2022-11-15T10:38:53;20.60;99.90
25668;DHT22;18003;-33.830;151.202;2022-11-15T10:41:31;20.50;99.90
25668;DHT22;18003;-33.830;151.202;2022-11-15T10:44:22;20.60;99.90
25668;DHT22;18003;-33.830;151.202;2022-11-15T10:49:27;20.50;99.90
25668;DHT22;18003;-33.830;151.202;2022-11-15T10:52:19;20.50;99.90
25668;DHT22;18003;-33.830;151.202;2022-11-15T10:54:53;20.50;99.90
25668;DHT22;18003;-33.830;151.202;2022-11-15T10:57:30;20.50;99.90
25668;DHT22;18003;-33.830;151.202;2022-11-15T11:00:39;20.50;99.90
25668;DHT22;18003;-33.830;151.202;2022-11-15T11:02:32;20.50;99.90
25668;DHT22;18003;-33.830;151.202;2022-11-15T11:05:03;20.50;99.90
25668;DHT22;18003;-33.830;151.202;2022-11-15T11:07:34;20.50;99.90
25668;DHT22;18003;-33.830;151.202;2022-11-15T11:10:21;20.40;99.90
25668;DHT22;18003;-33.830;151.202;2022-11-15T11:12:51;20.50;99.90
25668;DHT22;18003;-33.830;151.202;2022-11-15T11:15:21;20.40;99.90
25668;DHT22;18003;-33.830;151.202;2022-11-15T11:18:15;20.40;99.90
25668;DHT22;18003;-33.830;151.202;2022-11-15T11:20:53;20.40;99.90
25668;DHT22;18003;-33.830;151.202;2022-11-15T11:26:18;20.40;99.90
25668;DHT22;18003;-33.830;151.202;2022-11-15T11:31:18;20.30;99.90
25668;DHT22;18003;-33.830;151.202;2022-11-15T11:36:45;20.30;99.90
25668;DHT22;18003;-33.830;151.202;2022-11-15T11:39:23;20.30;99.90
25668;DHT22;18003;-33.830;151.202;2022-11-15T11:42:01;20.20;99.90
25668;DHT22;18003;-33.830;151.202;2022-11-15T11:44:42;20.20;99.90
25668;DHT22;18003;-33.830;151.202;2022-11-15T11:47:19;20.20;99.90
25668;DHT22;18003;-33.830;151.202;2022-11-15T11:49:59;20.10;99.90
25668;DHT22;18003;-33.830;151.202;2022-11-15T11:52:31;20.10;99.90
25668;DHT22;18003;-33.830;151.202;2022-11-15T11:55:19;20.10;99.90
25668;DHT22;18003;-33.830;151.202;2022-11-15T12:00:47;20.00;99.90
25668;DHT22;18003;-33.830;151.202;2022-11-15T12:06:01;20.00;99.90
25668;DHT22;18003;-33.830;151.202;2022-11-15T12:11:14;19.90;99.90
25668;DHT22;18003;-33.830;151.202;2022-11-15T12:13:44;19.90;99.90
25668;DHT22;18003;-33.830;151.202;2022-11-15T12:16:28;19.90;99.90
25668;DHT22;18003;-33.830;151.202;2022-11-15T12:18:56;19.90;99.90
25668;DHT22;18003;-33.830;151.202;2022-11-15T12:21:44;19.80;99.90
25668;DHT22;18003;-33.830;151.202;2022-11-15T12:24:23;19.80;99.90
25668;DHT22;18003;-33.830;151.202;2022-11-15T12:26:54;19.80;99.90
25668;DHT22;18003;-33.830;151.202;2022-11-15T12:29:39;19.70;99.90
25668;DHT22;18003;-33.830;151.202;2022-11-15T12:32:17;19.70;99.90
25668;DHT22;18003;-33.830;151.202;2022-11-15T12:34:45;19.70;99.90
25668;DHT22;18003;-33.830;151.202;2022-11-15T12:40:26;19.60;99.90
25668;DHT22;18003;-33.830;151.202;2022-11-15T12:43:32;19.60;99.90
25668;DHT22;18003;-33.830;151.202;2022-11-15T12:45:37;19.60;99.90
25668;DHT22;18003;-33.830;151.202;2022-11-15T12:50:55;19.60;99.90
25668;DHT22;18003;-33.830;151.202;2022-11-15T12:53:27;19.60;99.90
25668;DHT22;18003;-33.830;151.202;2022-11-15T12:58:56;19.60;99.90
25668;DHT22;18003;-33.830;151.202;2022-11-15T13:06:57;19.50;99.90
25668;DHT22;18003;-33.830;151.202;2022-11-15T13:14:50;19.50;99.90
25668;DHT22;18003;-33.830;151.202;2022-11-15T13:17:31;19.50;99.90
25668;DHT22;18003;-33.830;151.202;2022-11-15T13:22:48;19.40;99.90
25668;DHT22;18003;-33.830;151.202;2022-11-15T13:28:17;19.40;99.90
25668;DHT22;18003;-33.830;151.202;2022-11-15T13:33:29;19.40;99.90
25668;DHT22;18003;-33.830;151.202;2022-11-15T13:35:56;19.40;99.90
25668;DHT22;18003;-33.830;151.202;2022-11-15T13:38:28;19.30;99.90
25668;DHT22;18003;-33.830;151.202;2022-11-15T13:40:59;19.40;99.90
25668;DHT22;18003;-33.830;151.202;2022-11-15T13:43:36;19.30;99.90
25668;DHT22;18003;-33.830;151.202;2022-11-15T13:46:15;19.30;99.90
25668;DHT22;18003;-33.830;151.202;2022-11-15T13:48:45;19.30;99.90
25668;DHT22;18003;-33.830;151.202;2022-11-15T13:51:24;19.30;99.90
25668;DHT22;18003;-33.830;151.202;2022-11-15T13:56:54;19.20;99.90
25668;DHT22;18003;-33.830;151.202;2022-11-15T13:59:30;19.20;99.90
25668;DHT22;18003;-33.830;151.202;2022-11-15T14:02:02;19.20;99.90
25668;DHT22;18003;-33.830;151.202;2022-11-15T14:04:38;19.20;99.90
25668;DHT22;18003;-33.830;151.202;2022-11-15T14:07:03;19.10;99.90
25668;DHT22;18003;-33.830;151.202;2022-11-15T14:09:38;19.20;99.90
25668;DHT22;18003;-33.830;151.202;2022-11-15T14:12:33;19.20;99.90
25668;DHT22;18003;-33.830;151.202;2022-11-15T14:15:01;19.10;99.90
25668;DHT22;18003;-33.830;151.202;2022-11-15T14:17:36;19.10;99.90
25668;DHT22;18003;-33.830;151.202;2022-11-15T14:23:05;19.10;99.90
25668;DHT22;18003;-33.830;151.202;2022-11-15T14:25:31;19.10;99.90
25668;DHT22;18003;-33.830;151.202;2022-11-15T14:30:53;19.10;99.90
25668;DHT22;18003;-33.830;151.202;2022-11-15T14:33:33;19.00;99.90
25668;DHT22;18003;-33.830;151.202;2022-11-15T14:36:11;19.00;99.90
25668;DHT22;18003;-33.830;151.202;2022-11-15T14:38:35;19.00;99.90
25668;DHT22;18003;-33.830;151.202;2022-11-15T14:41:08;19.00;99.90
25668;DHT22;18003;-33.830;151.202;2022-11-15T14:43:37;19.00;99.90
25668;DHT22;18003;-33.830;151.202;2022-11-15T14:46:07;19.00;99.90
25668;DHT22;18003;-33.830;151.202;2022-11-15T14:48:37;18.90;99.90
25668;DHT22;18003;-33.830;151.202;2022-11-15T14:51:14;18.90;99.90
25668;DHT22;18003;-33.830;151.202;2022-11-15T14:53:45;18.90;99.90
25668;DHT22;18003;-33.830;151.202;2022-11-15T14:56:16;18.90;99.90
25668;DHT22;18003;-33.830;151.202;2022-11-15T14:58:46;18.90;99.90
25668;DHT22;18003;-33.830;151.202;2022-11-15T15:01:19;18.90;99.90
25668;DHT22;18003;-33.830;151.202;2022-11-15T15:03:48;18.90;99.90
25668;DHT22;18003;-33.830;151.202;2022-11-15T15:06:19;18.90;99.90
25668;DHT22;18003;-33.830;151.202;2022-11-15T15:08:49;18.90;99.90
25668;DHT22;18003;-33.830;151.202;2022-11-15T15:11:30;18.90;99.90
25668;DHT22;18003;-33.830;151.202;2022-11-15T15:13:55;18.90;99.90
25668;DHT22;18003;-33.830;151.202;2022-11-15T15:16:27;18.90;99.90
25668;DHT22;18003;-33.830;151.202;2022-11-15T15:18:57;18.90;99.90
25668;DHT22;18003;-33.830;151.202;2022-11-15T15:21:27;18.80;99.90
25668;DHT22;18003;-33.830;151.202;2022-11-15T15:24:00;18.80;99.90
25668;DHT22;18003;-33.830;151.202;2022-11-15T15:26:30;18.80;99.90
25668;DHT22;18003;-33.830;151.202;2022-11-15T15:29:01;18.80;99.90
25668;DHT22;18003;-33.830;151.202;2022-11-15T15:31:31;18.80;99.90
25668;DHT22;18003;-33.830;151.202;2022-11-15T15:34:01;18.80;99.90
25668;DHT22;18003;-33.830;151.202;2022-11-15T15:36:31;18.80;99.90
25668;DHT22;18003;-33.830;151.202;2022-11-15T15:39:01;18.80;99.90
25668;DHT22;18003;-33.830;151.202;2022-11-15T15:41:31;18.80;99.90
25668;DHT22;18003;-33.830;151.202;2022-11-15T15:44:01;18.80;99.90
25668;DHT22;18003;-33.830;151.202;2022-11-15T15:46:31;18.70;99.90
25668;DHT22;18003;-33.830;151.202;2022-11-15T15:49:02;18.70;99.90
25668;DHT22;18003;-33.830;151.202;2022-11-15T15:51:32;18.70;99.90
25668;DHT22;18003;-33.830;151.202;2022-11-15T15:54:02;18.70;99.90
25668;DHT22;18003;-33.830;151.202;2022-11-15T15:56:33;18.70;99.90
25668;DHT22;18003;-33.830;151.202;2022-11-15T15:59:03;18.70;99.90
25668;DHT22;18003;-33.830;151.202;2022-11-15T16:01:33;18.70;99.90
25668;DHT22;18003;-33.830;151.202;2022-11-15T16:04:03;18.70;99.90
25668;DHT22;18003;-33.830;151.202;2022-11-15T16:06:37;18.70;99.90
25668;DHT22;18003;-33.830;151.202;2022-11-15T16:09:09;18.60;99.90
25668;DHT22;18003;-33.830;151.202;2022-11-15T16:11:40;18.60;99.90
25668;DHT22;18003;-33.830;151.202;2022-11-15T16:14:10;18.70;99.90
25668;DHT22;18003;-33.830;151.202;2022-11-15T16:16:40;18.60;99.90
25668;DHT22;18003;-33.830;151.202;2022-11-15T16:19:11;18.70;99.90
25668;DHT22;18003;-33.830;151.202;2022-11-15T16:21:41;18.70;99.90
25668;DHT22;18003;-33.830;151.202;2022-11-15T16:24:11;18.60;99.90
25668;DHT22;18003;-33.830;151.202;2022-11-15T16:26:42;18.60;99.90
25668;DHT22;18003;-33.830;151.202;2022-11-15T16:29:12;18.60;99.90
25668;DHT22;18003;-33.830;151.202;2022-11-15T16:31:42;18.60;99.90
25668;DHT22;18003;-33.830;151.202;2022-11-15T16:34:12;18.60;99.90
25668;DHT22;18003;-33.830;151.202;2022-11-15T16:36:42;18.60;99.90
25668;DHT22;18003;-33.830;151.202;2022-11-15T16:39:13;18.50;99.90
25668;DHT22;18003;-33.830;151.202;2022-11-15T16:41:43;18.50;99.90
25668;DHT22;18003;-33.830;151.202;2022-11-15T16:44:15;18.50;99.90
25668;DHT22;18003;-33.830;151.202;2022-11-15T16:46:45;18.50;99.90
25668;DHT22;18003;-33.830;151.202;2022-11-15T16:49:16;18.50;99.90
25668;DHT22;18003;-33.830;151.202;2022-11-15T16:51:48;18.50;99.90
25668;DHT22;18003;-33.830;151.202;2022-11-15T16:54:18;18.40;99.90
25668;DHT22;18003;-33.830;151.202;2022-11-15T16:56:48;18.40;99.90
25668;DHT22;18003;-33.830;151.202;2022-11-15T16:59:18;18.40;99.90
25668;DHT22;18003;-33.830;151.202;2022-11-15T17:01:48;18.40;99.90